Aviation Digital Data Service (ADDS)

Output produced by METARs form (2037 UTC 01 October 2016)
found at http://aviationweather.gov/adds/metars/
 
KAUG 011723Z 0118/0218 04005KT P6SM SCT025 OVC060 
     FM012200 02005KT P6SM -SHRA BKN025 OVC050